createdAt,value
2022-08-17T00:01:27.357Z,19.22
2022-08-17T00:03:55.324Z,19.15
2022-08-17T00:06:26.126Z,19.09
2022-08-17T00:09:00.351Z,19.07
2022-08-17T00:11:31.932Z,19.07
2022-08-17T00:14:02.355Z,19.07
2022-08-17T00:16:56.396Z,19.01
2022-08-17T00:19:21.890Z,18.97
2022-08-17T00:22:32.378Z,18.93
2022-08-17T00:24:36.932Z,18.89
2022-08-17T00:27:03.586Z,18.85
2022-08-17T00:29:30.269Z,18.84
2022-08-17T00:31:56.606Z,18.88
2022-08-17T00:34:23.171Z,18.84
2022-08-17T00:36:49.777Z,18.79
2022-08-17T00:39:16.198Z,18.73
2022-08-17T00:41:42.878Z,18.75
2022-08-17T00:44:09.664Z,18.70
2022-08-17T00:46:39.991Z,18.67
2022-08-17T00:49:07.573Z,18.64
2022-08-17T00:51:49.292Z,18.62
2022-08-17T00:54:22.038Z,18.63
2022-08-17T00:57:14.012Z,18.59
2022-08-17T01:00:02.676Z,18.54
2022-08-17T01:02:36.680Z,18.47
2022-08-17T01:05:12.607Z,18.41
2022-08-17T01:07:39.520Z,18.33
2022-08-17T01:10:57.342Z,18.36
2022-08-17T01:12:56.141Z,18.33
2022-08-17T01:15:22.860Z,18.35
2022-08-17T01:17:49.521Z,18.33
2022-08-17T01:20:15.862Z,18.31
2022-08-17T01:22:42.320Z,18.33
2022-08-17T01:25:08.924Z,18.24
2022-08-17T01:27:37.420Z,18.19
2022-08-17T01:30:58.300Z,18.19
2022-08-17T01:32:54.753Z,18.12
2022-08-17T01:35:21.176Z,18.14
2022-08-17T01:37:47.783Z,18.09
2022-08-17T01:40:27.379Z,18.12
2022-08-17T01:42:58.525Z,18.14
2022-08-17T01:45:29.064Z,18.12
2022-08-17T01:47:56.096Z,18.08
2022-08-17T01:50:29.350Z,18.03
2022-08-17T01:53:01.952Z,18.01
2022-08-17T01:55:38.170Z,17.98
2022-08-17T01:58:04.867Z,17.95
2022-08-17T02:00:59.609Z,17.92
2022-08-17T02:03:19.483Z,17.92
2022-08-17T02:05:46.557Z,17.89
2022-08-17T02:08:19.939Z,17.89
2022-08-17T02:10:48.026Z,17.84
2022-08-17T02:13:16.060Z,17.79
2022-08-17T02:15:42.691Z,17.79
2022-08-17T02:18:10.719Z,17.78
2022-08-17T02:20:41.919Z,17.76
2022-08-17T02:23:11.183Z,17.74
2022-08-17T02:25:39.794Z,17.77
2022-08-17T02:28:06.214Z,17.76
2022-08-17T02:31:02.095Z,17.72
2022-08-17T02:33:19.662Z,17.68
2022-08-17T02:35:47.213Z,17.62
2022-08-17T02:38:13.540Z,17.61
2022-08-17T02:40:40.241Z,17.57
2022-08-17T02:43:09.080Z,17.53
2022-08-17T02:45:36.412Z,17.54
2022-08-17T02:48:03.626Z,17.53
2022-08-17T02:50:30.062Z,17.46
2022-08-17T02:53:02.382Z,17.44
2022-08-17T02:55:35.577Z,17.49
2022-08-17T02:58:02.362Z,17.44
2022-08-17T03:00:32.421Z,17.42
2022-08-17T03:02:59.101Z,17.31
2022-08-17T03:05:28.555Z,17.31
2022-08-17T03:07:56.283Z,17.37
2022-08-17T03:10:23.921Z,17.34
2022-08-17T03:12:52.011Z,17.34
2022-08-17T03:15:25.869Z,17.31
2022-08-17T03:17:53.417Z,17.29
2022-08-17T03:20:21.153Z,17.31
2022-08-17T03:22:53.377Z,17.32
2022-08-17T03:25:26.892Z,17.29
2022-08-17T03:27:54.435Z,17.26
2022-08-17T03:30:21.481Z,17.13
2022-08-17T03:32:50.970Z,17.04
2022-08-17T03:35:20.527Z,17.09
2022-08-17T03:37:47.047Z,17.12
2022-08-17T03:40:55.703Z,17.06
2022-08-17T03:43:10.348Z,17.00
2022-08-17T03:45:37.882Z,16.97
2022-08-17T03:48:05.691Z,16.98
2022-08-17T03:50:32.020Z,17.01
2022-08-17T03:52:58.815Z,17.04
2022-08-17T03:55:36.074Z,17.00
2022-08-17T03:58:02.885Z,17.00
2022-08-17T04:00:29.376Z,16.97
2022-08-17T04:02:56.103Z,16.96
2022-08-17T04:05:22.434Z,16.95
2022-08-17T04:07:48.758Z,16.98
2022-08-17T04:10:15.517Z,17.01
2022-08-17T04:12:48.641Z,17.00
2022-08-17T04:15:15.553Z,16.97
2022-08-17T04:17:42.109Z,16.91
2022-08-17T04:20:09.068Z,16.90
2022-08-17T04:22:35.672Z,16.91
2022-08-17T04:25:15.265Z,16.89
2022-08-17T04:27:41.883Z,16.86
2022-08-17T04:30:09.025Z,16.90
2022-08-17T04:33:05.807Z,16.88
2022-08-17T04:35:50.460Z,16.87
2022-08-17T04:38:20.221Z,16.87
2022-08-17T04:40:47.642Z,16.89
2022-08-17T04:43:18.771Z,16.92
2022-08-17T04:45:54.840Z,16.96
2022-08-17T04:48:22.414Z,16.97
2022-08-17T04:50:50.565Z,16.93
2022-08-17T04:53:18.358Z,16.93
2022-08-17T04:55:45.152Z,16.96
2022-08-17T04:58:11.930Z,16.96
2022-08-17T05:00:38.715Z,16.94
2022-08-17T05:03:06.554Z,16.97
2022-08-17T05:05:35.654Z,17.01
2022-08-17T05:08:05.852Z,17.06
2022-08-17T05:10:36.417Z,17.08
2022-08-17T05:13:22.034Z,17.11
2022-08-17T05:15:53.095Z,17.14
2022-08-17T05:18:19.424Z,17.18
2022-08-17T05:20:45.861Z,17.21
2022-08-17T05:23:15.207Z,17.27
2022-08-17T05:25:47.364Z,17.33
2022-08-17T05:28:16.010Z,17.35
2022-08-17T05:30:44.042Z,17.41
2022-08-17T05:33:13.692Z,17.45
2022-08-17T05:35:42.309Z,17.55
2022-08-17T05:38:09.086Z,17.57
2022-08-17T05:40:36.147Z,17.61
2022-08-17T05:43:13.283Z,17.70
2022-08-17T05:45:55.474Z,17.78
2022-08-17T05:48:35.704Z,17.79
2022-08-17T05:51:24.029Z,17.83
2022-08-17T05:54:07.254Z,17.83
2022-08-17T05:56:50.679Z,17.87
2022-08-17T05:59:47.820Z,17.93
2022-08-17T06:02:23.253Z,17.94
2022-08-17T06:05:08.355Z,17.98
2022-08-17T06:07:37.316Z,18.03
2022-08-17T06:10:22.817Z,18.10
2022-08-17T06:13:11.040Z,18.20
2022-08-17T06:16:33.341Z,18.26
2022-08-17T06:19:06.202Z,18.39
2022-08-17T06:21:39.421Z,18.41
2022-08-17T06:24:22.013Z,18.46
2022-08-17T06:26:49.694Z,18.57
2022-08-17T06:29:37.368Z,18.69
2022-08-17T06:32:07.959Z,18.76
2022-08-17T06:34:35.093Z,18.84
2022-08-17T06:37:22.460Z,18.94
2022-08-17T06:40:02.490Z,19.05
2022-08-17T06:42:54.716Z,19.14
2022-08-17T06:45:43.188Z,19.26
2022-08-17T06:48:25.073Z,19.37
2022-08-17T06:51:14.757Z,19.50
2022-08-17T06:54:02.871Z,19.61
2022-08-17T06:56:53.425Z,19.66
2022-08-17T06:59:25.721Z,19.78
2022-08-17T07:01:54.022Z,19.85
2022-08-17T07:04:25.243Z,19.97
2022-08-17T07:07:00.476Z,20.09
2022-08-17T07:09:35.811Z,20.14
2022-08-17T07:12:14.243Z,20.16
2022-08-17T07:14:49.952Z,20.21
2022-08-17T07:17:18.512Z,20.27
2022-08-17T07:19:47.850Z,20.44
2022-08-17T07:22:25.999Z,20.54
2022-08-17T07:24:57.903Z,20.69
2022-08-17T07:27:31.268Z,20.79
2022-08-17T07:30:26.924Z,20.92
2022-08-17T07:32:58.220Z,21.01
2022-08-17T07:35:41.208Z,21.09
2022-08-17T07:38:26.228Z,21.22
2022-08-17T07:40:56.703Z,21.45
2022-08-17T07:43:29.535Z,21.63
2022-08-17T07:46:02.536Z,21.79
2022-08-17T07:48:28.992Z,21.85
2022-08-17T07:50:55.378Z,21.99
2022-08-17T07:53:25.192Z,22.05
2022-08-17T07:55:53.545Z,22.16
2022-08-17T07:58:23.261Z,22.27
2022-08-17T08:01:11.514Z,22.37
2022-08-17T08:03:42.407Z,22.49
2022-08-17T08:06:23.297Z,22.65
2022-08-17T08:08:55.537Z,22.91
2022-08-17T08:11:33.054Z,23.20
2022-08-17T08:14:29.971Z,23.38
2022-08-17T08:17:06.630Z,23.47
2022-08-17T08:19:35.690Z,23.56
2022-08-17T08:22:09.688Z,23.68
2022-08-17T08:24:54.464Z,23.86
2022-08-17T08:27:58.593Z,24.09
2022-08-17T08:30:25.014Z,24.31
2022-08-17T08:33:20.535Z,24.31
2022-08-17T08:36:00.122Z,24.45
2022-08-17T08:39:03.042Z,24.48
2022-08-17T08:41:48.045Z,24.64
2022-08-17T08:45:01.120Z,24.83
2022-08-17T08:47:29.424Z,25.10
2022-08-17T08:50:37.329Z,25.19
2022-08-17T08:53:12.438Z,25.30
2022-08-17T08:55:52.104Z,25.74
2022-08-17T08:58:43.248Z,26.08
2022-08-17T09:01:23.220Z,26.53
2022-08-17T09:04:23.184Z,27.13
2022-08-17T09:07:01.639Z,27.79
2022-08-17T09:09:40.927Z,28.25
2022-08-17T09:12:22.589Z,28.87
2022-08-17T09:15:00.644Z,29.04
2022-08-17T09:17:36.767Z,29.25
2022-08-17T09:20:27.312Z,29.68
2022-08-17T09:23:05.408Z,30.17
2022-08-17T09:25:34.985Z,30.49
2022-08-17T09:28:05.772Z,31.24
2022-08-17T09:30:41.056Z,31.72
2022-08-17T09:33:09.765Z,32.16
2022-08-17T09:35:45.673Z,32.20
2022-08-17T09:38:30.439Z,32.77
2022-08-17T09:41:14.055Z,32.88
2022-08-17T09:43:47.619Z,33.11
2022-08-17T09:46:20.421Z,33.19
2022-08-17T09:49:30.632Z,33.42
2022-08-17T09:52:03.251Z,33.56
2022-08-17T09:54:40.866Z,33.63
2022-08-17T09:57:32.667Z,33.54
2022-08-17T10:00:05.082Z,33.29
2022-08-17T10:02:48.569Z,33.25
2022-08-17T10:05:35.479Z,33.43
2022-08-17T10:08:31.427Z,32.90
2022-08-17T10:11:17.925Z,32.70
2022-08-17T10:13:58.776Z,32.50
2022-08-17T10:16:45.452Z,32.54
2022-08-17T10:19:19.415Z,32.95
2022-08-17T10:21:50.359Z,32.98
2022-08-17T10:24:34.177Z,32.76
2022-08-17T10:27:03.229Z,32.82
2022-08-17T10:29:47.317Z,32.47
2022-08-17T10:32:29.442Z,32.18
2022-08-17T10:35:01.079Z,32.16
2022-08-17T10:37:43.984Z,31.95
2022-08-17T10:40:46.343Z,31.93
2022-08-17T10:43:15.772Z,31.94
2022-08-17T10:46:27.648Z,32.26
2022-08-17T10:48:40.218Z,32.13
2022-08-17T10:51:11.011Z,31.93
2022-08-17T10:53:50.790Z,31.83
2022-08-17T10:56:22.113Z,31.73
2022-08-17T10:59:00.546Z,31.74
2022-08-17T11:01:32.950Z,31.71
2022-08-17T11:04:17.795Z,31.66
2022-08-17T11:06:58.369Z,31.58
2022-08-17T11:09:34.455Z,31.54
2022-08-17T11:12:35.331Z,31.46
2022-08-17T11:15:14.343Z,31.38
2022-08-17T11:17:58.877Z,31.27
2022-08-17T11:20:46.143Z,31.17
2022-08-17T11:23:49.377Z,31.06
2022-08-17T11:26:27.405Z,31.02
2022-08-17T11:28:59.167Z,31.01
2022-08-17T11:31:42.536Z,31.08
2022-08-17T11:34:22.439Z,31.16
2022-08-17T11:36:55.887Z,31.09
2022-08-17T11:39:30.336Z,31.10
2022-08-17T11:42:34.431Z,31.01
2022-08-17T11:45:32.307Z,30.98
2022-08-17T11:48:33.521Z,30.82
2022-08-17T11:51:15.177Z,30.72
2022-08-17T11:53:41.792Z,30.58
2022-08-17T11:56:30.916Z,30.49
2022-08-17T11:58:58.403Z,30.72
2022-08-17T12:01:45.150Z,30.51
2022-08-17T12:04:31.977Z,30.43
2022-08-17T12:07:19.620Z,30.50
2022-08-17T12:09:50.948Z,30.59
2022-08-17T12:12:22.676Z,30.67
2022-08-17T12:17:42.757Z,31.03
2022-08-17T12:20:15.146Z,31.18
2022-08-17T12:23:24.217Z,31.37
2022-08-17T12:26:04.916Z,31.48
2022-08-17T12:28:35.610Z,31.47
2022-08-17T12:31:05.950Z,31.35
2022-08-17T12:33:33.377Z,31.16
2022-08-17T12:36:08.190Z,31.04
2022-08-17T12:38:36.717Z,31.00
2022-08-17T12:41:07.405Z,30.96
2022-08-17T12:43:33.755Z,30.88
2022-08-17T12:46:15.037Z,30.82
2022-08-17T12:48:55.109Z,30.79
2022-08-17T12:51:26.723Z,30.87
2022-08-17T12:53:55.174Z,30.64
2022-08-17T12:56:21.602Z,30.51
2022-08-17T12:58:51.526Z,30.29
2022-08-17T13:01:18.173Z,30.03
2022-08-17T13:03:48.759Z,30.08
2022-08-17T13:06:28.743Z,30.35
2022-08-17T13:08:55.087Z,30.25
2022-08-17T13:11:24.676Z,30.35
2022-08-17T13:13:54.663Z,30.07
2022-08-17T13:16:24.838Z,29.95
2022-08-17T13:19:12.243Z,30.11
2022-08-17T13:21:45.949Z,29.94
2022-08-17T13:24:12.217Z,29.55
2022-08-17T13:26:50.746Z,29.42
2022-08-17T13:29:33.852Z,29.45
2022-08-17T13:32:10.701Z,29.45
2022-08-17T13:35:15.357Z,29.33
2022-08-17T13:37:40.623Z,29.26
2022-08-17T13:40:09.144Z,29.39
2022-08-17T13:42:52.986Z,29.27
2022-08-17T13:45:36.291Z,29.40
2022-08-17T13:48:13.880Z,29.29
2022-08-17T13:50:47.731Z,29.08
2022-08-17T13:53:24.796Z,29.04
2022-08-17T13:55:58.195Z,28.93
2022-08-17T13:58:29.294Z,28.88
2022-08-17T14:00:56.105Z,28.92
2022-08-17T14:03:24.045Z,29.06
2022-08-17T14:05:52.231Z,28.95
2022-08-17T14:08:20.519Z,28.92
2022-08-17T14:10:57.254Z,29.28
2022-08-17T14:13:24.094Z,29.09
2022-08-17T14:15:55.428Z,29.36
2022-08-17T14:18:52.028Z,29.40
2022-08-17T14:21:10.032Z,29.22
2022-08-17T14:23:37.633Z,29.05
2022-08-17T14:26:04.555Z,28.90
2022-08-17T14:28:31.028Z,28.65
2022-08-17T14:30:59.157Z,28.53
2022-08-17T14:33:25.503Z,28.40
2022-08-17T14:35:52.178Z,28.31
2022-08-17T14:38:19.772Z,28.35
2022-08-17T14:40:47.558Z,28.37
2022-08-17T14:43:14.466Z,28.41
2022-08-17T14:45:40.807Z,28.32
2022-08-17T14:48:07.406Z,28.23
2022-08-17T14:50:39.945Z,28.21
2022-08-17T14:53:11.827Z,28.35
2022-08-17T14:55:38.533Z,28.37
2022-08-17T14:58:05.115Z,28.27
2022-08-17T15:00:33.058Z,28.70
2022-08-17T15:03:00.635Z,28.22
2022-08-17T15:05:30.441Z,28.10
2022-08-17T15:07:57.822Z,27.79
2022-08-17T15:10:25.886Z,27.60
2022-08-17T15:12:52.775Z,27.44
2022-08-17T15:15:19.245Z,27.42
2022-08-17T15:17:46.267Z,27.39
2022-08-17T15:20:18.090Z,27.35
2022-08-17T15:22:46.659Z,27.39
2022-08-17T15:25:14.048Z,27.54
2022-08-17T15:27:41.057Z,27.49
2022-08-17T15:30:08.873Z,27.48
2022-08-17T15:32:38.350Z,27.51
2022-08-17T15:35:06.377Z,27.54
2022-08-17T15:37:32.752Z,27.75
2022-08-17T15:39:59.559Z,27.82
2022-08-17T15:42:26.032Z,27.79
2022-08-17T15:44:52.692Z,27.80
2022-08-17T15:47:19.110Z,27.71
2022-08-17T15:49:46.544Z,27.71
2022-08-17T15:52:20.265Z,27.76
2022-08-17T15:55:06.070Z,27.94
2022-08-17T15:57:32.486Z,28.00
2022-08-17T15:59:59.314Z,28.15
2022-08-17T16:03:29.440Z,28.26
2022-08-17T16:05:19.921Z,28.29
2022-08-17T16:07:46.481Z,28.20
2022-08-17T16:10:18.201Z,28.25
2022-08-17T16:12:46.594Z,28.19
2022-08-17T16:15:13.995Z,28.23
2022-08-17T16:17:41.058Z,28.29
2022-08-17T16:20:09.700Z,28.13
2022-08-17T16:22:47.267Z,28.27
2022-08-17T16:25:52.357Z,28.36
2022-08-17T16:28:21.237Z,28.44
2022-08-17T16:30:47.570Z,28.68
2022-08-17T16:33:14.129Z,28.71
2022-08-17T16:35:40.510Z,28.54
2022-08-17T16:38:07.086Z,28.47
2022-08-17T16:40:36.037Z,28.36
2022-08-17T16:43:03.874Z,28.28
2022-08-17T16:45:30.775Z,28.21
2022-08-17T16:47:57.120Z,28.39
2022-08-17T16:50:23.773Z,28.37
2022-08-17T16:52:50.464Z,28.33
2022-08-17T16:55:20.035Z,28.40
2022-08-17T16:57:50.016Z,28.63
2022-08-17T17:00:17.845Z,28.74
2022-08-17T17:02:46.479Z,28.98
2022-08-17T17:05:32.931Z,29.21
2022-08-17T17:08:12.240Z,29.09
2022-08-17T17:10:51.336Z,29.11
2022-08-17T17:13:26.412Z,29.22
2022-08-17T17:16:18.757Z,29.23
2022-08-17T17:19:34.387Z,29.15
2022-08-17T17:22:13.236Z,29.05
2022-08-17T17:25:01.142Z,28.93
2022-08-17T17:27:51.490Z,28.78
2022-08-17T17:30:23.708Z,28.77
2022-08-17T17:32:59.643Z,28.66
2022-08-17T17:35:32.340Z,28.57
2022-08-17T17:38:05.106Z,28.55
2022-08-17T17:41:03.135Z,28.53
2022-08-17T17:43:40.027Z,28.47
2022-08-17T17:46:30.922Z,28.43
2022-08-17T17:48:58.055Z,28.40
2022-08-17T17:52:03.556Z,28.36
2022-08-17T17:54:30.744Z,28.29
2022-08-17T17:57:06.111Z,28.23
2022-08-17T17:59:51.600Z,28.14
2022-08-17T18:02:42.337Z,28.11
2022-08-17T18:05:44.295Z,27.98
2022-08-17T18:08:31.925Z,27.87
2022-08-17T18:11:26.082Z,27.71
2022-08-17T18:14:26.104Z,27.53
2022-08-17T18:16:59.635Z,27.34
2022-08-17T18:19:28.743Z,27.19
2022-08-17T18:22:07.311Z,27.06
2022-08-17T18:24:37.958Z,26.96
2022-08-17T18:27:18.622Z,26.86
2022-08-17T18:29:46.660Z,26.69
2022-08-17T18:32:21.715Z,26.55
2022-08-17T18:34:52.455Z,26.42
2022-08-17T18:37:39.468Z,26.33
2022-08-17T18:40:25.928Z,26.17
2022-08-17T18:43:01.061Z,26.01
2022-08-17T18:45:47.643Z,25.89
2022-08-17T18:48:30.545Z,25.77
2022-08-17T18:51:20.647Z,25.64
2022-08-17T18:54:04.577Z,25.51
2022-08-17T18:56:40.395Z,25.39
2022-08-17T18:59:37.798Z,25.28
2022-08-17T19:02:19.752Z,25.17
2022-08-17T19:05:25.503Z,25.07
2022-08-17T19:07:52.376Z,24.97
2022-08-17T19:10:28.031Z,24.89
2022-08-17T19:13:02.858Z,24.80
2022-08-17T19:15:44.856Z,24.70
2022-08-17T19:18:42.811Z,24.58
2022-08-17T19:21:20.034Z,24.41
2022-08-17T19:23:59.125Z,24.32
2022-08-17T19:26:51.249Z,24.20
2022-08-17T19:29:29.715Z,24.11
2022-08-17T19:31:57.239Z,24.03
2022-08-17T19:34:33.637Z,24.05
2022-08-17T19:37:20.725Z,23.97
2022-08-17T19:40:01.267Z,23.88
2022-08-17T19:43:05.158Z,23.80
2022-08-17T19:45:40.483Z,23.74
2022-08-17T19:48:30.234Z,23.70
2022-08-17T19:51:03.478Z,23.60
2022-08-17T19:54:04.497Z,23.53
2022-08-17T19:56:54.659Z,23.46
2022-08-17T19:59:39.503Z,23.42
2022-08-17T20:02:25.790Z,23.33
2022-08-17T20:04:55.829Z,23.24
2022-08-17T20:07:27.104Z,23.18
2022-08-17T20:10:02.239Z,23.09
2022-08-17T20:12:35.411Z,23.04
2022-08-17T20:15:13.367Z,23.00
2022-08-17T20:17:46.107Z,22.95
2022-08-17T20:20:54.760Z,22.93
2022-08-17T20:23:28.541Z,22.89
2022-08-17T20:26:05.304Z,22.81
2022-08-17T20:28:35.238Z,22.79
2022-08-17T20:31:02.416Z,22.73
2022-08-17T20:33:35.293Z,22.62
2022-08-17T20:36:09.879Z,22.56
2022-08-17T20:38:48.397Z,22.47
2022-08-17T20:41:23.634Z,22.39
2022-08-17T20:44:02.286Z,22.33
2022-08-17T20:46:37.891Z,22.29
2022-08-17T20:49:33.763Z,22.27
2022-08-17T20:52:12.996Z,22.24
2022-08-17T20:54:56.774Z,22.15
2022-08-17T20:57:32.318Z,22.04
2022-08-17T21:00:07.804Z,21.96
2022-08-17T21:02:34.147Z,21.88
2022-08-17T21:05:07.299Z,21.82
2022-08-17T21:07:42.990Z,21.74
2022-08-17T21:10:15.714Z,21.66
2022-08-17T21:12:48.483Z,21.60
2022-08-17T21:15:35.795Z,21.55
2022-08-17T21:18:43.981Z,21.45
2022-08-17T21:21:50.244Z,21.35
2022-08-17T21:24:52.574Z,21.27
2022-08-17T21:27:46.872Z,21.24
2022-08-17T21:30:49.286Z,21.11
2022-08-17T21:33:23.970Z,21.07
2022-08-17T21:36:10.132Z,20.98
2022-08-17T21:38:40.964Z,20.94
2022-08-17T21:41:19.399Z,20.89
2022-08-17T21:43:49.071Z,20.85
2022-08-17T21:46:29.379Z,20.75
2022-08-17T21:49:04.387Z,20.71
2022-08-17T21:51:48.113Z,20.62
2022-08-17T21:54:34.305Z,20.64
2022-08-17T21:57:03.981Z,20.58
2022-08-17T21:59:33.892Z,20.50
2022-08-17T22:02:02.925Z,20.48
2022-08-17T22:04:40.932Z,20.42
2022-08-17T22:07:11.421Z,20.36
2022-08-17T22:09:47.751Z,20.36
2022-08-17T22:12:22.645Z,20.30
2022-08-17T22:14:55.252Z,20.21
2022-08-17T22:17:26.359Z,20.20
2022-08-17T22:20:10.661Z,20.13
2022-08-17T22:22:39.648Z,20.09
2022-08-17T22:25:19.178Z,20.05
2022-08-17T22:27:56.162Z,20.01
2022-08-17T22:30:25.506Z,19.92
2022-08-17T22:32:51.866Z,19.85
2022-08-17T22:35:39.580Z,19.78
2022-08-17T22:38:18.328Z,19.76
2022-08-17T22:40:57.516Z,19.73
2022-08-17T22:43:26.651Z,19.73
2022-08-17T22:45:55.564Z,19.71
2022-08-17T22:48:27.280Z,19.67
2022-08-17T22:51:12.780Z,19.63
2022-08-17T22:53:49.766Z,19.58
2022-08-17T22:56:23.234Z,19.51
2022-08-17T22:58:58.875Z,19.48
2022-08-17T23:01:32.835Z,19.49
2022-08-17T23:04:11.173Z,19.46
2022-08-17T23:06:40.334Z,19.38
2022-08-17T23:09:07.421Z,19.32
2022-08-17T23:11:49.858Z,19.19
2022-08-17T23:14:19.366Z,19.15
2022-08-17T23:16:46.986Z,19.21
2022-08-17T23:19:16.581Z,19.19
2022-08-17T23:21:43.930Z,19.17
2022-08-17T23:24:17.242Z,19.16
2022-08-17T23:26:43.576Z,19.12
2022-08-17T23:29:09.989Z,19.09
2022-08-17T23:31:38.703Z,19.03
2022-08-17T23:34:10.405Z,18.99
2022-08-17T23:36:37.425Z,18.97
2022-08-17T23:39:05.304Z,18.90
2022-08-17T23:41:35.927Z,18.86
2022-08-17T23:44:05.854Z,18.80
2022-08-17T23:46:32.799Z,18.79
2022-08-17T23:48:59.186Z,18.79
2022-08-17T23:51:29.034Z,18.80
2022-08-17T23:54:05.663Z,18.75
2022-08-17T23:56:34.385Z,18.68
2022-08-17T23:59:01.153Z,18.61
